Time;durP1;ratioP1;P1;durP2;ratioP2;P2;SDS_P1;SDS_P2;PMS_P1;PMS_P2;Temp;Humidity;BMP_temperature;BMP_pressure;BME280_temperature;BME280_humidity;BME280_pressure;Samples;Min_cycle;Max_cycle;Signal;HPM_P1;HPM_P2
2021/04/20 00:01:26;;;;;;;4.70;1.80;;;;;;;23.02;47.59;98456.38;5115528;27;20224;-64
2021/04/20 00:03:52;;;;;;;3.67;1.80;;;;;;;23.02;48.05;98452.88;5117119;27;20200;-63
2021/04/20 00:06:20;;;;;;;4.05;1.90;;;;;;;23.02;47.29;98459.03;5123451;27;20197;-64
2021/04/20 00:08:46;;;;;;;4.60;1.80;;;;;;;23.01;47.39;98452.03;5122445;27;20238;-64
2021/04/20 00:11:12;;;;;;;4.32;2.03;;;;;;;23.01;48.10;98454.69;5126823;27;20575;-62
2021/04/20 00:13:38;;;;;;;2.65;1.70;;;;;;;23.01;48.05;98448.53;5128677;27;20208;-65
2021/04/20 00:16:05;;;;;;;2.35;1.50;;;;;;;22.99;47.52;98447.88;5120163;27;20220;-64
2021/04/20 00:18:32;;;;;;;2.50;1.42;;;;;;;23.00;47.65;98445.06;5123391;27;20215;-67
2021/04/20 00:20:58;;;;;;;3.15;1.80;;;;;;;22.99;47.37;98443.38;5130250;27;20289;-66
2021/04/20 00:23:24;;;;;;;2.63;1.67;;;;;;;23.00;47.89;98449.53;5124802;27;20805;-68
2021/04/20 00:25:50;;;;;;;3.50;2.03;;;;;;;22.98;48.04;98440.88;5119963;27;20216;-65
2021/04/20 00:28:22;;;;;;;2.47;1.48;;;;;;;23.00;48.12;98444.19;5122709;27;20302;-64
2021/04/20 00:30:49;;;;;;;3.08;1.75;;;;;;;22.98;47.99;98440.88;5115652;27;20262;-65
2021/04/20 00:33:15;;;;;;;3.35;1.80;;;;;;;22.95;47.37;98449.19;5125595;27;20819;-65
2021/04/20 00:35:42;;;;;;;4.63;1.70;;;;;;;22.96;47.80;98437.53;5121934;27;20232;-65
2021/04/20 00:38:08;;;;;;;3.00;1.73;;;;;;;22.94;48.22;98434.22;5118568;27;20285;-65
2021/04/20 00:40:35;;;;;;;3.42;2.20;;;;;;;22.95;48.08;98433.19;5124315;27;20315;-65
2021/04/20 00:43:01;;;;;;;2.70;1.73;;;;;;;22.92;47.26;98432.53;5124274;27;20292;-64
2021/04/20 00:45:31;;;;;;;3.60;1.95;;;;;;;22.94;48.46;98428.88;5125086;27;20257;-65
2021/04/20 00:47:57;;;;;;;1.85;1.38;;;;;;;22.94;48.16;98429.69;5123573;27;20201;-66
2021/04/20 00:50:25;;;;;;;2.30;1.63;;;;;;;22.93;47.58;98422.69;5122436;27;20216;-66
2021/04/20 00:52:52;;;;;;;2.60;1.67;;;;;;;22.92;48.34;98421.88;5125464;27;20347;-64
2021/04/20 00:55:19;;;;;;;2.53;1.40;;;;;;;22.91;47.53;98417.56;5128377;27;20323;-68
2021/04/20 00:57:45;;;;;;;2.38;1.65;;;;;;;22.91;47.84;98425.53;5115050;27;20204;-63
2021/04/20 01:00:14;;;;;;;3.40;1.60;;;;;;;22.89;48.05;98419.53;5120613;27;20228;-65
2021/04/20 01:02:40;;;;;;;2.60;1.77;;;;;;;22.90;47.90;98420.38;5125464;27;20210;-65
2021/04/20 01:05:09;;;;;;;3.53;1.67;;;;;;;22.88;48.07;98420.53;5126602;27;20201;-64
2021/04/20 01:07:35;;;;;;;3.25;2.05;;;;;;;22.90;47.76;98421.19;5127408;27;20366;-68
2021/04/20 01:10:03;;;;;;;2.60;1.70;;;;;;;22.91;48.17;98414.88;5123470;27;20204;-67
2021/04/20 01:12:30;;;;;;;3.65;1.88;;;;;;;22.87;47.41;98418.03;5127682;27;20542;-65
2021/04/20 01:14:57;;;;;;;2.88;1.60;;;;;;;22.86;48.01;98411.84;5132745;27;20314;-65
2021/04/20 01:17:26;;;;;;;3.45;1.60;;;;;;;22.84;48.51;98413.84;5125678;27;20201;-61
2021/04/20 01:19:54;;;;;;;4.55;1.73;;;;;;;22.87;47.88;98418.84;5127015;27;20206;-65
2021/04/20 01:22:22;;;;;;;2.85;1.45;;;;;;;22.86;47.45;98417.19;5121954;27;20242;-61
2021/04/20 01:24:49;;;;;;;1.92;1.48;;;;;;;22.86;48.21;98417.19;5124010;28;20633;-64
2021/04/20 01:27:16;;;;;;;2.70;1.48;;;;;;;22.85;48.08;98415.53;5115658;27;20301;-66
2021/04/20 01:29:42;;;;;;;2.25;1.52;;;;;;;22.85;48.45;98412.88;5124233;27;20228;-66
2021/04/20 01:32:09;;;;;;;3.88;1.45;;;;;;;22.85;47.55;98415.53;5124402;28;20235;-66
2021/04/20 01:34:35;;;;;;;2.25;1.67;;;;;;;22.85;47.56;98404.88;5124703;27;20205;-65
2021/04/20 01:37:01;;;;;;;2.05;1.58;;;;;;;22.84;47.12;98407.69;5115656;27;20201;-65
2021/04/20 01:39:28;;;;;;;3.85;1.58;;;;;;;22.85;47.73;98415.53;5122886;27;20754;-65
2021/04/20 01:41:55;;;;;;;2.30;1.38;;;;;;;22.85;48.06;98417.38;5123120;28;20249;-64
2021/04/20 01:44:21;;;;;;;2.00;1.48;;;;;;;22.84;48.25;98416.50;5123304;27;20208;-65
2021/04/20 01:46:47;;;;;;;2.58;1.48;;;;;;;22.84;47.87;98429.84;5128370;27;20210;-67
2021/04/20 01:49:13;;;;;;;3.08;1.50;;;;;;;22.82;47.33;98423.03;5128108;27;20304;-65
2021/04/20 01:51:40;;;;;;;1.67;1.30;;;;;;;22.83;48.19;98425.53;5121170;27;20308;-65
2021/04/20 01:54:06;;;;;;;3.08;1.85;;;;;;;22.82;48.38;98426.50;5120692;28;20196;-64
2021/04/20 01:56:33;;;;;;;4.30;1.77;;;;;;;22.82;47.93;98426.50;5123193;27;20216;-70
2021/04/20 01:59:02;;;;;;;2.15;1.65;;;;;;;22.81;48.39;98424.84;5119016;28;20197;-66
2021/04/20 02:01:29;;;;;;;2.20;1.42;;;;;;;22.81;47.53;98418.69;5121191;27;20293;-66
2021/04/20 02:03:55;;;;;;;3.70;1.63;;;;;;;22.82;47.34;98420.34;5118738;27;20279;-65
2021/04/20 02:06:24;;;;;;;2.33;1.50;;;;;;;22.82;47.88;98431.03;5117719;27;20239;-64
2021/04/20 02:08:51;;;;;;;3.53;1.67;;;;;;;22.79;47.50;98424.16;5124117;28;20650;-59
2021/04/20 02:11:19;;;;;;;3.17;1.33;;;;;;;22.76;48.02;98426.31;5123215;27;20257;-65
2021/04/20 02:13:45;;;;;;;1.85;1.30;;;;;;;22.75;47.35;98425.50;5124417;27;20201;-66
2021/04/20 02:16:13;;;;;;;3.50;1.70;;;;;;;22.72;47.57;98420.50;5120691;27;20706;-64
2021/04/20 02:18:41;;;;;;;4.60;1.90;;;;;;;22.72;47.12;98418.66;5116174;27;20201;-68
2021/04/20 02:21:08;;;;;;;2.60;1.52;;;;;;;22.70;47.61;98418.00;5126119;27;20227;-65
2021/04/20 02:23:36;;;;;;;3.90;1.40;;;;;;;22.71;47.44;98419.63;5119807;27;20201;-65
2021/04/20 02:26:04;;;;;;;1.80;1.27;;;;;;;22.71;47.42;98418.81;5120626;27;20205;-65
2021/04/20 02:28:31;;;;;;;1.80;1.15;;;;;;;22.69;47.74;98423.47;5127207;27;20301;-66
2021/04/20 02:31:00;;;;;;;3.17;1.73;;;;;;;22.67;47.74;98420.16;5113674;27;20224;-61
2021/04/20 02:33:28;;;;;;;6.13;1.77;;;;;;;22.68;47.50;98420.00;5120938;27;20591;-65
2021/04/20 02:35:56;;;;;;;3.15;1.60;;;;;;;22.66;46.87;98421.13;5120934;27;20231;-65
2021/04/20 02:38:22;;;;;;;3.90;1.60;;;;;;;22.66;47.41;98415.81;5129723;27;20239;-66
2021/04/20 02:40:53;;;;;;;4.18;1.48;;;;;;;22.68;47.97;98414.66;5125853;27;20331;-59
2021/04/20 02:43:19;;;;;;;1.88;1.10;;;;;;;22.66;48.04;98421.13;5130201;27;20211;-63
2021/04/20 02:45:47;;;;;;;2.92;1.60;;;;;;;22.64;47.72;98415.97;5129606;27;20201;-66
2021/04/20 02:48:13;;;;;;;2.05;1.60;;;;;;;22.64;47.49;98420.47;5124896;27;20197;-65
2021/04/20 02:50:42;;;;;;;4.03;1.73;;;;;;;22.66;48.00;98416.63;5119663;27;20236;-64
2021/04/20 02:53:08;;;;;;;2.75;1.67;;;;;;;22.60;47.48;98406.66;5127025;27;20204;-68
2021/04/20 02:55:35;;;;;;;2.50;1.33;;;;;;;22.60;48.15;98406.66;5126142;27;20227;-64
2021/04/20 02:58:02;;;;;;;3.10;1.70;;;;;;;22.63;47.98;98410.78;5128262;27;20200;-64
2021/04/20 03:00:32;;;;;;;3.65;1.67;;;;;;;22.60;47.48;98411.13;5124109;27;20307;-65
2021/04/20 03:03:00;;;;;;;3.40;1.85;;;;;;;22.61;48.05;98410.13;5130545;27;20210;-65
2021/04/20 03:05:29;;;;;;;1.50;0.98;;;;;;;22.62;47.99;98409.16;5116358;27;20299;-68
2021/04/20 03:07:56;;;;;;;3.13;1.70;;;;;;;22.59;47.25;98404.97;5126384;27;20257;-67
2021/04/20 03:10:23;;;;;;;2.65;1.60;;;;;;;22.60;47.52;98400.47;5128398;27;20309;-67
2021/04/20 03:12:51;;;;;;;4.13;1.38;;;;;;;22.60;47.65;98400.47;5119291;27;20201;-66
2021/04/20 03:15:18;;;;;;;2.20;1.30;;;;;;;22.59;47.95;98404.13;5115584;27;20403;-66
2021/04/20 03:17:46;;;;;;;3.38;1.60;;;;;;;22.60;48.02;98403.13;5125365;27;20216;-65
2021/04/20 03:20:14;;;;;;;2.50;1.50;;;;;;;22.59;48.17;98401.47;5124065;27;20218;-61
2021/04/20 03:22:42;;;;;;;1.80;1.30;;;;;;;22.58;48.03;98399.78;5131986;27;20534;-64
2021/04/20 03:25:16;;;;;;;4.75;1.67;;;;;;;22.55;48.50;98403.63;5123452;27;20256;-67
2021/04/20 03:27:43;;;;;;;3.25;1.48;;;;;;;;;;5125067;27;20337;-66
2021/04/20 03:30:11;;;;;;;3.13;1.30;;;;;;;;;;5120971;27;20654;-67
2021/04/20 03:32:39;;;;;;;2.53;1.27;;;;;;;22.56;48.16;98399.13;5118650;27;20227;-66
2021/04/20 03:35:11;;;;;;;1.90;1.33;;;;;;;22.56;47.14;98393.78;5116293;27;20220;-67
2021/04/20 03:37:45;;;;;;;2.75;1.73;;;;;;;22.61;47.52;98396.81;5117942;27;20417;-66
2021/04/20 03:40:14;;;;;;;2.53;1.60;;;;;;;22.65;47.19;98387.47;5121100;27;20247;-65
2021/04/20 03:42:45;;;;;;;2.15;1.30;;;;;;;22.69;47.79;98391.50;5129908;27;20545;-66
2021/04/20 03:45:16;;;;;;;4.03;1.30;;;;;;;22.70;47.89;98393.19;5127782;27;20205;-65
2021/04/20 03:47:45;;;;;;;2.17;1.33;;;;;;;22.72;47.50;98384.00;5124333;27;20207;-66
2021/04/20 03:50:16;;;;;;;3.28;1.50;;;;;;;22.75;46.76;98382.00;5127493;27;20206;-62
2021/04/20 03:52:46;;;;;;;2.75;1.40;;;;;;;22.75;47.47;98388.19;5122645;27;20307;-65
2021/04/20 03:55:16;;;;;;;2.95;1.30;;;;;;;22.76;47.49;98395.16;5125256;27;20221;-63
2021/04/20 03:57:46;;;;;;;2.80;1.60;;;;;;;22.78;46.71;98387.84;5126347;27;20201;-65
2021/04/20 04:00:15;;;;;;;2.75;1.73;;;;;;;22.79;46.90;98392.19;5126011;27;20211;-66
2021/04/20 04:02:43;;;;;;;1.80;1.23;;;;;;;22.81;46.97;98386.69;5124506;27;20216;-65
2021/04/20 04:05:17;;;;;;;3.88;1.70;;;;;;;22.82;47.72;98389.19;5111187;27;20280;-66
2021/04/20 04:07:44;;;;;;;2.63;1.52;;;;;;;22.82;47.38;98386.53;5124922;27;20196;-65
2021/04/20 04:10:14;;;;;;;2.72;1.40;;;;;;;22.84;47.50;98386.38;5126207;27;20628;-62
2021/04/20 04:12:41;;;;;;;2.90;1.55;;;;;;;22.86;46.78;98387.84;5122089;27;20284;-66
2021/04/20 04:15:10;;;;;;;2.08;1.38;;;;;;;22.86;47.38;98385.19;5121842;27;20534;-66
2021/04/20 04:17:39;;;;;;;3.50;1.27;;;;;;;22.87;47.32;98392.19;5119945;27;20288;-66
2021/04/20 04:20:06;;;;;;;2.25;1.40;;;;;;;22.88;46.69;98388.56;5125991;27;20204;-66
2021/04/20 04:22:37;;;;;;;3.80;1.52;;;;;;;22.90;46.86;98386.56;5124598;27;20208;-66
2021/04/20 04:25:06;;;;;;;1.88;1.30;;;;;;;22.91;47.13;98390.03;5113341;27;20230;-67
2021/04/20 04:27:38;;;;;;;1.98;1.25;;;;;;;22.91;46.45;98388.22;5124332;27;20341;-67
2021/04/20 04:30:08;;;;;;;1.38;1.10;;;;;;;22.94;47.26;98389.72;5121084;27;20264;-66
2021/04/20 04:32:36;;;;;;;2.03;1.35;;;;;;;22.95;47.32;98387.88;5115896;27;20204;-66
2021/04/20 04:35:04;;;;;;;3.75;1.50;;;;;;;22.94;47.27;98388.88;5115510;27;20319;-68
2021/04/20 04:37:32;;;;;;;1.75;1.30;;;;;;;22.96;47.35;98394.88;5121896;27;20280;-67
2021/04/20 04:39:59;;;;;;;1.95;1.23;;;;;;;22.97;47.46;98401.91;5123798;27;20235;-66
2021/04/20 04:42:25;;;;;;;3.50;1.30;;;;;;;22.97;47.31;98399.22;5123167;27;20201;-65
2021/04/20 04:44:52;;;;;;;1.60;1.30;;;;;;;22.97;46.33;98397.38;5117893;27;20516;-66
2021/04/20 04:47:19;;;;;;;1.58;1.27;;;;;;;22.99;46.49;98397.22;5124230;27;20272;-66
2021/04/20 04:49:46;;;;;;;1.58;1.17;;;;;;;22.99;47.33;98398.06;5123372;27;20196;-65
2021/04/20 04:52:14;;;;;;;2.67;1.23;;;;;;;23.00;46.38;98396.22;5120871;27;20267;-67
2021/04/20 04:54:42;;;;;;;1.55;1.20;;;;;;;23.01;46.61;98398.72;5124617;27;20201;-67
2021/04/20 04:57:11;;;;;;;1.60;1.25;;;;;;;23.05;46.89;98401.91;5120420;27;20602;-66
2021/04/20 04:59:37;;;;;;;2.95;1.50;;;;;;;23.06;46.60;98391.09;5123360;27;20214;-67
2021/04/20 05:02:06;;;;;;;2.35;1.48;;;;;;;23.07;45.63;98395.44;5119253;27;20326;-65
2021/04/20 05:04:33;;;;;;;2.30;1.30;;;;;;;23.10;46.69;98396.94;5124709;28;20215;-64
2021/04/20 05:06:59;;;;;;;9.32;1.35;;;;;;;23.11;45.55;98403.09;5116082;27;20216;-65
2021/04/20 05:09:25;;;;;;;3.08;1.40;;;;;;;23.11;46.05;98398.59;5130774;27;20296;-61
2021/04/20 05:11:53;;;;;;;2.33;1.50;;;;;;;23.11;45.70;98397.75;5125297;27;20228;-65
2021/04/20 05:14:20;;;;;;;3.25;1.40;;;;;;;23.04;46.19;98392.22;5123653;27;20196;-65
2021/04/20 05:16:49;;;;;;;21.45;3.20;;;;;;;23.03;47.14;98401.22;5123254;27;20642;-63
2021/04/20 05:19:22;;;;;;;23.75;3.92;;;;;;;23.05;47.17;98399.25;5123934;28;20665;-64
2021/04/20 05:21:48;;;;;;;17.90;3.00;;;;;;;23.04;47.93;98395.72;5120283;27;20220;-59
2021/04/20 05:24:15;;;;;;;19.13;3.20;;;;;;;23.07;46.95;98397.28;5122888;27;20520;-61
2021/04/20 05:26:41;;;;;;;18.95;2.85;;;;;;;23.09;46.80;98400.59;5123140;27;20200;-62
2021/04/20 05:29:07;;;;;;;22.02;2.88;;;;;;;23.08;47.69;98405.09;5123301;27;20596;-63
2021/04/20 05:31:35;;;;;;;13.30;2.97;;;;;;;23.12;47.06;98405.59;5122047;27;20223;-65
2021/04/20 05:34:03;;;;;;;20.83;2.80;;;;;;;23.12;47.15;98400.28;5124203;27;20208;-64
2021/04/20 05:36:30;;;;;;;12.20;2.50;;;;;;;23.16;46.91;98406.09;5123915;27;20236;-66
2021/04/20 05:38:58;;;;;;;21.48;2.97;;;;;;;23.19;47.00;98403.94;5123370;27;21012;-57
2021/04/20 05:41:25;;;;;;;13.43;2.80;;;;;;;23.19;47.04;98403.94;5123825;27;20221;-63
2021/04/20 05:43:52;;;;;;;11.18;2.58;;;;;;;23.17;47.43;98413.94;5124174;27;20268;-57
2021/04/20 05:46:19;;;;;;;8.88;2.53;;;;;;;23.15;47.30;98418.63;5124844;27;20203;-61
2021/04/20 05:48:45;;;;;;;17.88;2.70;;;;;;;23.19;46.45;98411.09;5123896;27;20205;-66
2021/04/20 05:51:12;;;;;;;12.30;2.17;;;;;;;23.19;47.19;98406.59;5123866;27;20726;-65
2021/04/20 05:53:39;;;;;;;11.30;2.10;;;;;;;23.21;46.92;98399.25;5127165;27;20281;-66
2021/04/20 05:56:06;;;;;;;12.65;2.50;;;;;;;23.21;47.07;98404.59;5125261;27;20316;-63
2021/04/20 05:58:33;;;;;;;15.85;2.70;;;;;;;23.19;47.11;98401.25;5125022;27;20276;-61
2021/04/20 06:00:59;;;;;;;17.70;2.83;;;;;;;23.19;46.51;98406.59;5129481;27;20219;-62
2021/04/20 06:03:26;;;;;;;9.60;2.80;;;;;;;23.19;47.45;98400.44;5127691;27;20201;-60
2021/04/20 06:05:53;;;;;;;9.75;2.42;;;;;;;23.18;46.79;98410.28;5126772;27;20196;-61
2021/04/20 06:08:19;;;;;;;8.27;2.65;;;;;;;23.23;47.01;98407.09;5124772;27;20198;-63
2021/04/20 06:10:47;;;;;;;7.15;2.78;;;;;;;23.27;47.53;98411.94;5126796;27;20231;-65
2021/04/20 06:13:13;;;;;;;11.03;2.50;;;;;;;23.29;48.31;98406.44;5119843;27;20469;-63
2021/04/20 06:15:39;;;;;;;13.43;2.40;;;;;;;23.30;48.66;98412.59;5124385;27;20324;-64
2021/04/20 06:18:06;;;;;;;11.18;2.72;;;;;;;23.39;48.20;98411.63;5134043;27;20199;-64
2021/04/20 06:20:33;;;;;;;11.23;2.17;;;;;;;23.55;47.84;98410.75;5123028;27;20243;-64
2021/04/20 06:23:00;;;;;;;8.35;1.88;;;;;;;23.62;47.16;98407.25;5119624;27;20294;-64
2021/04/20 06:25:28;;;;;;;10.02;2.80;;;;;;;23.64;46.68;98415.91;5113884;27;20740;-63
2021/04/20 06:27:55;;;;;;;9.80;2.67;;;;;;;23.68;46.27;98413.78;5121401;27;20254;-63
2021/04/20 06:30:22;;;;;;;8.80;2.58;;;;;;;23.69;45.97;98417.28;5127619;27;20196;-64
2021/04/20 06:32:49;;;;;;;9.45;2.70;;;;;;;23.65;46.72;98412.25;5119705;27;20283;-64
2021/04/20 06:35:18;;;;;;;8.18;2.40;;;;;;;23.63;46.04;98413.41;5123640;27;20220;-64
2021/04/20 06:37:45;;;;;;;8.15;2.90;;;;;;;23.60;46.58;98411.94;5127527;27;20236;-65
2021/04/20 06:40:16;;;;;;;8.38;2.08;;;;;;;23.61;47.01;98412.75;5129284;27;20230;-64
2021/04/20 06:42:47;;;;;;;7.30;2.70;;;;;;;23.63;45.70;98414.28;5118602;27;20201;-64
2021/04/20 06:45:18;;;;;;;10.88;2.70;;;;;;;23.68;46.55;98415.59;5123174;27;20203;-64
2021/04/20 06:47:53;;;;;;;7.07;2.30;;;;;;;23.67;46.28;98414.75;5120394;27;20627;-63
2021/04/20 06:50:22;;;;;;;7.72;2.40;;;;;;;23.68;45.67;98419.13;5122581;27;20223;-64
2021/04/20 06:52:51;;;;;;;8.32;2.75;;;;;;;23.64;46.14;98423.94;5123286;27;20819;-64
2021/04/20 06:55:25;;;;;;;7.50;2.83;;;;;;;23.69;46.31;98422.59;5123489;27;20353;-62
2021/04/20 06:58:03;;;;;;;22.63;3.22;;;;;;;23.68;45.53;98418.25;5126986;27;20197;-65
2021/04/20 07:00:39;;;;;;;9.20;3.00;;;;;;;23.66;44.88;98421.09;5126984;27;20707;-63
2021/04/20 07:03:15;;;;;;;9.20;3.20;;;;;;;23.63;45.98;98430.28;5114411;27;20291;-64
2021/04/20 07:05:47;;;;;;;9.18;2.85;;;;;;;23.62;44.78;98427.78;5117836;27;20647;-65
2021/04/20 07:08:20;;;;;;;7.38;2.95;;;;;;;23.62;45.26;98422.44;5103722;27;20255;-64
2021/04/20 07:10:48;;;;;;;18.38;4.32;;;;;;;23.54;44.71;98425.94;5110139;27;20260;-64
2021/04/20 07:13:19;;;;;;;12.70;4.35;;;;;;;23.54;44.95;98417.94;5123149;27;20224;-64
2021/04/20 07:15:52;;;;;;;7.65;3.67;;;;;;;23.54;44.16;98409.94;5118563;27;20221;-64
2021/04/20 07:18:52;;;;;;;12.90;3.70;;;;;;;23.56;44.56;98415.94;5122152;27;20211;-66
2021/04/20 07:21:33;;;;;;;9.18;3.40;;;;;;;23.55;44.24;98408.94;5117509;27;20326;-63
2021/04/20 07:24:13;;;;;;;8.38;3.45;;;;;;;23.56;45.16;98415.94;5119186;27;20235;-62
2021/04/20 07:27:06;;;;;;;9.73;3.50;;;;;;;23.56;44.26;98418.59;5124910;27;20197;-67
2021/04/20 07:29:39;;;;;;;9.27;3.83;;;;;;;23.57;44.72;98416.78;5122800;27;20201;-64
2021/04/20 07:32:22;;;;;;;7.20;3.75;;;;;;;23.57;44.89;98412.28;5124924;27;20252;-64
2021/04/20 07:35:01;;;;;;;8.68;3.38;;;;;;;23.56;44.29;98409.75;5119425;27;20244;-65
2021/04/20 07:37:37;;;;;;;5.68;3.45;;;;;;;23.53;44.98;98404.75;5119005;27;20317;-63
2021/04/20 07:40:23;;;;;;;10.38;3.83;;;;;;;23.57;45.06;98417.59;5122705;27;20365;-60
2021/04/20 07:43:02;;;;;;;5.88;2.83;;;;;;;23.63;44.40;98416.94;5126119;27;20227;-64
2021/04/20 07:45:35;;;;;;;6.32;3.13;;;;;;;23.68;44.53;98420.94;5123437;27;20234;-65
2021/04/20 07:48:10;;;;;;;5.60;3.60;;;;;;;23.71;44.79;98421.41;5117914;27;20262;-64
2021/04/20 07:50:45;;;;;;;6.07;3.33;;;;;;;23.73;43.67;98424.78;5122510;27;21045;-67
2021/04/20 07:53:17;;;;;;;6.28;3.33;;;;;;;23.75;44.25;98417.44;5114967;27;20204;-65
2021/04/20 07:55:50;;;;;;;7.82;3.55;;;;;;;23.75;44.23;98414.75;5123657;27;20663;-58
2021/04/20 07:58:20;;;;;;;7.13;4.00;;;;;;;23.77;44.24;98410.06;5123796;27;20196;-57
2021/04/20 08:00:53;;;;;;;6.72;3.45;;;;;;;23.81;44.06;98413.22;5119721;27;20217;-62
2021/04/20 08:03:26;;;;;;;6.15;3.60;;;;;;;23.87;43.89;98412.59;5128588;27;20212;-65
2021/04/20 08:05:57;;;;;;;5.10;3.05;;;;;;;23.91;44.31;98410.41;5123644;27;20205;-62
2021/04/20 08:08:31;;;;;;;8.18;3.05;;;;;;;23.90;43.98;98406.06;5124836;27;20337;-62
2021/04/20 08:11:02;;;;;;;6.22;3.60;;;;;;;23.92;44.46;98412.09;5122766;27;20314;-64
2021/04/20 08:13:31;;;;;;;7.90;3.05;;;;;;;23.91;44.33;98405.91;5120928;27;20197;-64
2021/04/20 08:16:02;;;;;;;7.30;3.22;;;;;;;23.95;44.74;98407.25;5121317;27;20238;-62
2021/04/20 08:18:35;;;;;;;5.95;2.80;;;;;;;23.97;44.00;98399.88;5123972;27;20658;-64
2021/04/20 08:21:03;;;;;;;5.40;3.10;;;;;;;23.97;43.39;98389.19;5124025;27;20212;-64
2021/04/20 08:23:31;;;;;;;6.85;3.10;;;;;;;23.98;44.43;98393.56;5123580;27;20204;-63
2021/04/20 08:26:03;;;;;;;4.20;2.58;;;;;;;23.98;44.28;98385.53;5120947;27;20219;-65
2021/04/20 08:28:39;;;;;;;5.32;2.92;;;;;;;24.00;44.50;98393.38;5121800;27;20727;-62
2021/04/20 08:31:11;;;;;;;6.43;3.60;;;;;;;23.86;43.98;98391.41;5111007;27;20308;-66
2021/04/20 08:33:43;;;;;;;5.95;3.67;;;;;;;23.87;43.74;98393.91;5110760;27;20211;-66
2021/04/20 08:36:16;;;;;;;5.22;2.97;;;;;;;23.92;43.75;98388.06;5122667;27;20259;-63
2021/04/20 08:38:53;;;;;;;5.00;2.28;;;;;;;23.94;44.62;98386.88;5130401;27;20390;-61
2021/04/20 08:41:31;;;;;;;8.20;2.78;;;;;;;23.92;44.43;98383.53;5107475;27;20229;-66
2021/04/20 08:44:13;;;;;;;4.28;2.33;;;;;;;23.88;44.63;98379.56;5119674;27;20498;-65
2021/04/20 08:46:53;;;;;;;3.25;2.10;;;;;;;23.89;45.02;98386.56;5127918;27;20205;-65
2021/04/20 08:49:27;;;;;;;3.70;2.00;;;;;;;23.90;44.71;98382.03;5121749;27;20196;-67
2021/04/20 08:51:55;;;;;;;5.37;2.10;;;;;;;23.87;44.19;98380.56;5115307;27;20551;-67
2021/04/20 08:54:36;;;;;;;2.80;2.05;;;;;;;23.83;45.45;98373.88;5131804;27;20456;-62
2021/04/20 08:57:08;;;;;;;5.20;1.98;;;;;;;23.83;45.04;98379.22;5118729;27;20268;-64
2021/04/20 08:59:52;;;;;;;3.55;1.75;;;;;;;23.84;44.46;98380.91;5131402;27;20203;-62
2021/04/20 09:02:28;;;;;;;9.48;2.00;;;;;;;23.78;44.99;98379.72;5118529;27;20280;-64
2021/04/20 09:05:14;;;;;;;4.85;2.00;;;;;;;23.76;45.39;98386.22;5116609;27;20592;-62
2021/04/20 09:07:51;;;;;;;8.25;2.65;;;;;;;23.61;46.30;98380.75;5118013;27;20262;-63
2021/04/20 09:10:20;;;;;;;12.77;2.60;;;;;;;23.58;45.82;98379.25;5114968;27;20532;-63
2021/04/20 09:12:47;;;;;;;5.53;1.77;;;;;;;23.59;46.78;98374.75;5123416;27;20814;-65
2021/04/20 09:15:18;;;;;;;6.35;2.10;;;;;;;23.63;47.48;98378.72;5117379;27;20834;-61
2021/04/20 09:17:49;;;;;;;9.02;2.05;;;;;;;23.62;48.15;98380.56;5120637;27;20200;-64
2021/04/20 09:20:25;;;;;;;4.72;1.67;;;;;;;23.64;47.17;98375.88;5125884;27;20208;-64
2021/04/20 09:22:57;;;;;;;8.57;2.03;;;;;;;23.67;47.82;98372.06;5115419;27;20299;-63
2021/04/20 09:25:28;;;;;;;10.38;2.10;;;;;;;23.73;47.37;98370.53;5109306;27;20287;-63
2021/04/20 09:28:01;;;;;;;4.93;2.10;;;;;;;23.75;48.12;98363.22;5125046;27;20216;-60
2021/04/20 09:30:32;;;;;;;5.75;1.90;;;;;;;23.75;47.66;98358.69;5130693;27;20365;-64
2021/04/20 09:33:05;;;;;;;6.07;1.70;;;;;;;23.78;48.52;98361.03;5115293;27;20237;-63
2021/04/20 09:35:33;;;;;;;6.45;2.17;;;;;;;23.81;48.53;98357.19;5125182;27;20234;-64
2021/04/20 09:38:01;;;;;;;3.85;1.60;;;;;;;23.80;48.37;98361.69;5115327;27;20510;-63
2021/04/20 09:40:30;;;;;;;3.97;1.80;;;;;;;23.80;47.89;98352.84;5123332;27;20314;-67
2021/04/20 09:43:10;;;;;;;3.75;1.83;;;;;;;23.82;48.03;98354.38;5125438;27;20934;-65
2021/04/20 09:45:39;;;;;;;4.47;1.60;;;;;;;23.84;48.35;98356.88;5129086;27;20986;-64
2021/04/20 09:48:15;;;;;;;6.80;1.73;;;;;;;23.83;48.42;98357.84;5127327;27;20386;-66
2021/04/20 09:50:53;;;;;;;7.85;1.77;;;;;;;23.80;48.61;98352.84;5126835;27;20311;-63
2021/04/20 09:53:53;;;;;;;4.97;2.10;;;;;;;23.84;47.76;98359.53;5121726;27;20216;-65
2021/04/20 09:56:29;;;;;;;3.55;1.67;;;;;;;23.84;48.51;98359.53;5121341;27;20657;-65
2021/04/20 09:58:55;;;;;;;3.45;1.52;;;;;;;23.84;47.74;98359.53;5121657;27;20732;-65
2021/04/20 10:01:38;;;;;;;3.88;1.40;;;;;;;23.81;47.18;98360.69;5119870;27;20307;-65
2021/04/20 10:04:07;;;;;;;4.80;1.65;;;;;;;23.76;46.29;98362.19;5123925;27;20185;-63
2021/04/20 10:06:56;;;;;;;4.47;1.70;;;;;;;23.78;46.90;98370.84;5120346;27;20197;-62
2021/04/20 10:09:33;;;;;;;3.25;1.50;;;;;;;23.73;47.03;98355.38;5122408;27;20355;-63
2021/04/20 10:12:11;;;;;;;4.85;1.73;;;;;;;23.73;46.72;98352.72;5127122;27;20220;-67
2021/04/20 10:14:52;;;;;;;4.20;1.73;;;;;;;23.77;46.92;98356.69;5129170;27;20646;-63
2021/04/20 10:17:24;;;;;;;4.38;2.10;;;;;;;23.70;46.09;98357.53;5124732;27;20242;-64
2021/04/20 10:19:59;;;;;;;6.78;2.72;;;;;;;23.66;46.49;98357.03;5125091;27;20898;-65
2021/04/20 10:22:36;;;;;;;3.70;1.83;;;;;;;23.68;45.77;98351.53;5123565;27;20708;-66
2021/04/20 10:25:12;;;;;;;2.95;1.90;;;;;;;23.56;46.09;98348.41;5126380;27;20838;-63
2021/04/20 10:27:38;;;;;;;7.07;2.25;;;;;;;23.54;45.84;98348.56;5124452;27;20196;-65
2021/04/20 10:30:11;;;;;;;7.28;2.35;;;;;;;23.51;46.05;98346.22;5130436;27;20239;-65
2021/04/20 10:32:40;;;;;;;17.50;3.00;;;;;;;23.42;45.60;98342.75;5123799;27;20338;-66
2021/04/20 10:35:14;;;;;;;4.88;2.35;;;;;;;23.41;45.21;98341.06;5127437;27;20219;-65
2021/04/20 10:37:44;;;;;;;5.78;2.70;;;;;;;23.44;44.71;98342.56;5117832;27;20205;-65
2021/04/20 10:40:14;;;;;;;6.32;2.25;;;;;;;23.37;45.15;98336.25;5124576;27;20315;-67
2021/04/20 10:42:44;;;;;;;5.47;2.70;;;;;;;23.34;45.59;98339.25;5119448;27;20200;-63
2021/04/20 10:45:12;;;;;;;8.13;2.35;;;;;;;23.37;44.79;98338.94;5128073;27;20649;-63
2021/04/20 10:47:43;;;;;;;6.70;2.65;;;;;;;23.42;45.17;98331.25;5127151;27;20288;-62
2021/04/20 10:50:19;;;;;;;2.85;2.30;;;;;;;23.44;44.74;98334.56;5125605;27;20197;-66
2021/04/20 10:52:46;;;;;;;5.68;2.13;;;;;;;23.48;44.78;98330.56;5127080;27;20653;-65
2021/04/20 10:55:15;;;;;;;5.57;1.88;;;;;;;23.48;45.33;98324.38;5126552;27;20291;-64
2021/04/20 10:57:46;;;;;;;6.38;2.05;;;;;;;23.45;44.95;98321.06;5127576;27;20220;-63
2021/04/20 11:00:16;;;;;;;3.33;1.80;;;;;;;23.45;45.50;98323.75;5128858;27;20383;-64
2021/04/20 11:02:47;;;;;;;5.63;1.70;;;;;;;23.51;45.48;98319.53;5125383;27;20312;-61
2021/04/20 11:05:17;;;;;;;1.98;1.60;;;;;;;23.47;45.73;98312.91;5130925;27;20245;-64
2021/04/20 11:07:44;;;;;;;3.47;1.92;;;;;;;23.50;45.10;98307.22;5122580;27;20193;-60
2021/04/20 11:10:14;;;;;;;7.90;1.95;;;;;;;23.50;46.14;98307.22;5125713;27;20269;-62
2021/04/20 11:12:41;;;;;;;7.20;2.15;;;;;;;23.49;46.11;98305.53;5126945;27;20308;-59
2021/04/20 11:15:10;;;;;;;5.70;2.30;;;;;;;23.45;44.87;98306.91;5121404;27;20316;-60
2021/04/20 11:17:48;;;;;;;3.28;2.00;;;;;;;23.47;45.61;98299.56;5116750;27;20221;-63
2021/04/20 11:20:18;;;;;;;5.95;1.90;;;;;;;23.47;45.21;98299.56;5125438;27;20251;-61
2021/04/20 11:22:48;;;;;;;4.55;1.83;;;;;;;23.49;44.84;98289.53;5124701;27;20256;-59
2021/04/20 11:25:26;;;;;;;3.50;2.10;;;;;;;23.57;44.86;98297.53;5123199;27;20196;-63
2021/04/20 11:27:57;;;;;;;4.50;1.77;;;;;;;23.59;45.58;98295.50;5125318;27;20281;-63
2021/04/20 11:30:30;;;;;;;7.00;2.13;;;;;;;23.54;45.18;98292.53;5120763;27;20614;-63
2021/04/20 11:32:58;;;;;;;4.60;1.98;;;;;;;23.56;45.51;98279.00;5124094;27;20768;-59
2021/04/20 11:35:27;;;;;;;7.05;2.20;;;;;;;23.42;45.80;98283.22;5125729;27;20208;-64
2021/04/20 11:37:59;;;;;;;13.27;3.47;;;;;;;23.38;43.51;98292.56;5122549;27;20345;-61
2021/04/20 11:40:30;;;;;;;8.52;2.80;;;;;;;23.39;42.36;98289.72;5122654;27;20200;-61
2021/04/20 11:43:00;;;;;;;19.13;3.50;;;;;;;23.49;43.68;98284.19;5124417;27;20291;-62
2021/04/20 11:45:28;;;;;;;15.63;2.72;;;;;;;23.49;43.29;98283.38;5121033;27;20216;-59
2021/04/20 11:48:01;;;;;;;11.25;2.65;;;;;;;23.51;44.37;98286.69;5122216;27;20197;-62